Time;durP1;ratioP1;P1;durP2;ratioP2;P2;SDS_P1;SDS_P2;PMS_P1;PMS_P2;Temp;Humidity;BMP_temperature;BMP_pressure;BME280_temperature;BME280_humidity;BME280_pressure;Samples;Min_cycle;Max_cycle;Signal;HPM_P1;HPM_P2
2022/05/02 00:00:45;;;;;;;0.60;0.50;;;20.10;50.20;;;;;;6268154;28;20067;-69
2022/05/02 00:03:45;;;;;;;1.00;0.60;;;20.10;50.20;;;;;;6250458;28;20063;-69
2022/05/02 00:06:46;;;;;;;0.57;0.50;;;20.10;50.90;;;;;;6268751;28;20025;-68
2022/05/02 00:09:46;;;;;;;0.38;0.32;;;20.10;50.20;;;;;;6249458;28;20203;-68
2022/05/02 00:12:47;;;;;;;0.52;0.47;;;20.10;50.20;;;;;;6268130;28;20025;-68
2022/05/02 00:15:47;;;;;;;0.50;0.40;;;20.10;50.20;;;;;;6267740;28;20025;-68
2022/05/02 00:18:48;;;;;;;0.75;0.52;;;20.10;50.20;;;;;;6249584;28;20039;-69
2022/05/02 00:21:48;;;;;;;0.55;0.40;;;20.10;50.30;;;;;;6267505;28;20064;-68
2022/05/02 00:24:49;;;;;;;0.75;0.40;;;20.10;50.30;;;;;;6268013;28;20052;-68
2022/05/02 00:27:50;;;;;;;0.55;0.40;;;20.10;50.20;;;;;;6267775;28;20473;-68
2022/05/02 00:30:50;;;;;;;0.60;0.40;;;20.10;50.20;;;;;;6239073;28;20028;-69
2022/05/02 00:33:51;;;;;;;0.40;0.40;;;20.10;50.30;;;;;;6224924;28;20508;-69
2022/05/02 00:36:52;;;;;;;0.40;0.38;;;20.10;50.30;;;;;;6243113;28;20014;-68
2022/05/02 00:39:52;;;;;;;0.40;0.40;;;20.10;50.20;;;;;;6242693;28;20034;-68
2022/05/02 00:42:53;;;;;;;0.30;0.30;;;20.10;50.30;;;;;;6241196;28;20021;-69
2022/05/02 00:45:53;;;;;;;0.32;0.32;;;20.10;50.20;;;;;;6242493;28;20025;-68
2022/05/02 00:48:54;;;;;;;0.68;0.50;;;20.10;50.30;;;;;;6242100;28;20052;-70
2022/05/02 00:51:55;;;;;;;0.50;0.38;;;20.10;50.20;;;;;;6242416;28;20017;-68
2022/05/02 00:54:55;;;;;;;0.40;0.40;;;20.10;50.20;;;;;;6266258;28;20036;-70
2022/05/02 00:57:59;;;;;;;0.40;0.40;;;20.10;50.20;;;;;;6266747;28;20029;-68
2022/05/02 01:01:00;;;;;;;0.28;0.28;;;20.10;50.30;;;;;;6266996;28;20017;-68
2022/05/02 01:04:00;;;;;;;0.70;0.40;;;20.10;50.30;;;;;;6266482;28;20498;-68
2022/05/02 01:07:19;;;;;;;0.55;0.35;;;20.10;50.20;;;;;;6266658;28;20025;-68
2022/05/02 01:10:19;;;;;;;0.35;0.35;;;20.10;50.30;;;;;;6266724;28;20450;-68
2022/05/02 01:13:43;;;;;;;0.30;0.30;;;20.10;50.30;;;;;;6266597;28;20039;-68
2022/05/02 01:16:44;;;;;;;0.50;0.40;;;20.10;50.30;;;;;;6266484;28;20660;-69
2022/05/02 01:19:45;;;;;;;0.43;0.35;;;20.10;50.30;;;;;;6266462;28;20029;-68
2022/05/02 01:22:46;;;;;;;0.40;0.40;;;20.10;50.30;;;;;;6266713;28;20570;-69
2022/05/02 01:25:46;;;;;;;0.93;0.43;;;20.10;50.30;;;;;;6266317;28;20154;-69
2022/05/02 01:28:49;;;;;;;0.30;0.30;;;20.10;50.30;;;;;;6266163;28;20021;-69
2022/05/02 01:31:49;;;;;;;0.45;0.45;;;20.10;50.30;;;;;;6246806;28;20492;-68
2022/05/02 01:34:50;;;;;;;0.60;0.40;;;20.10;50.30;;;;;;6241368;28;20037;-68
2022/05/02 01:37:50;;;;;;;0.40;0.40;;;20.10;50.30;;;;;;6241584;28;20036;-68
2022/05/02 01:40:51;;;;;;;0.55;0.50;;;20.10;50.30;;;;;;6242105;28;20028;-68
2022/05/02 01:43:51;;;;;;;0.47;0.40;;;20.10;50.30;;;;;;6246582;28;20029;-68
2022/05/02 01:46:53;;;;;;;0.60;0.40;;;20.10;50.30;;;;;;6246314;28;20142;-69
2022/05/02 01:49:54;;;;;;;0.77;0.40;;;20.10;50.30;;;;;;6228527;28;20420;-68
2022/05/02 01:52:54;;;;;;;0.40;0.40;;;20.10;50.30;;;;;;6262625;28;20033;-68
2022/05/02 01:55:55;;;;;;;0.73;0.40;;;20.10;50.40;;;;;;6271065;28;20025;-68
2022/05/02 01:58:56;;;;;;;0.70;0.40;;;20.10;50.30;;;;;;6270665;28;20502;-67
2022/05/02 02:01:56;;;;;;;0.57;0.28;;;20.10;50.30;;;;;;6270744;28;20021;-69
2022/05/02 02:08:21;;;;;;;0.50;0.40;;;20.10;50.30;;;;;;6270430;28;20072;-69
2022/05/02 02:11:23;;;;;;;0.60;0.50;;;20.10;50.30;;;;;;6270609;28;20024;-68
2022/05/02 02:14:24;;;;;;;0.57;0.50;;;20.10;50.30;;;;;;6252730;28;20021;-68
2022/05/02 02:17:25;;;;;;;0.32;0.25;;;20.10;50.30;;;;;;6269433;28;20037;-69
2022/05/02 02:20:26;;;;;;;0.47;0.30;;;20.10;50.30;;;;;;6270316;28;20021;-68
2022/05/02 02:23:27;;;;;;;0.28;0.28;;;20.10;50.30;;;;;;6270368;28;20051;-68
2022/05/02 02:26:28;;;;;;;0.47;0.45;;;20.10;50.30;;;;;;6270360;28;20479;-68
2022/05/02 02:29:28;;;;;;;0.60;0.40;;;20.10;50.30;;;;;;6270454;28;20052;-68
2022/05/02 02:32:29;;;;;;;1.25;0.50;;;20.10;50.30;;;;;;6270195;28;20029;-68
2022/05/02 02:35:30;;;;;;;0.75;0.60;;;20.10;50.30;;;;;;6270258;28;20487;-69
2022/05/02 02:38:31;;;;;;;1.33;0.65;;;20.00;50.20;;;;;;6269988;28;20090;-68
2022/05/02 02:41:31;;;;;;;0.30;0.30;;;20.10;50.30;;;;;;6269886;28;20017;-69
2022/05/02 02:44:32;;;;;;;0.40;0.30;;;20.10;50.30;;;;;;6270241;28;20056;-68
2022/05/02 02:47:33;;;;;;;0.73;0.38;;;20.10;50.30;;;;;;6270012;28;20029;-68
2022/05/02 02:50:34;;;;;;;0.40;0.40;;;20.10;50.30;;;;;;6269611;28;20070;-68
2022/05/02 02:53:34;;;;;;;0.75;0.50;;;20.10;50.30;;;;;;6268987;28;20036;-68
2022/05/02 02:56:35;;;;;;;0.60;0.50;;;20.10;50.30;;;;;;6269666;28;20040;-69
2022/05/02 02:59:35;;;;;;;0.55;0.40;;;20.10;50.40;;;;;;6269784;28;20032;-69
2022/05/02 03:02:40;;;;;;;0.52;0.40;;;20.10;50.30;;;;;;6269521;28;20183;-68
2022/05/02 03:09:00;;;;;;;0.68;0.47;;;20.10;50.30;;;;;;6269373;28;20052;-68
2022/05/02 03:12:00;;;;;;;0.50;0.40;;;20.10;50.30;;;;;;6251540;28;20036;-68
2022/05/02 03:15:01;;;;;;;0.45;0.30;;;20.10;50.30;;;;;;6269056;28;20040;-68
2022/05/02 03:18:02;;;;;;;0.63;0.43;;;20.10;50.30;;;;;;6269216;28;20025;-69
2022/05/02 03:21:03;;;;;;;0.68;0.40;;;20.10;50.30;;;;;;6268817;28;20029;-68
2022/05/02 03:24:04;;;;;;;0.63;0.40;;;20.10;50.30;;;;;;6268939;28;20071;-69
2022/05/02 03:27:05;;;;;;;0.80;0.45;;;20.10;50.30;;;;;;6269281;28;20040;-69
2022/05/02 03:30:06;;;;;;;0.60;0.40;;;20.10;50.30;;;;;;6268896;28;20029;-69
2022/05/02 03:33:07;;;;;;;1.13;0.55;;;20.10;50.40;;;;;;6268918;28;20025;-69
2022/05/02 03:36:08;;;;;;;0.30;0.30;;;20.10;50.30;;;;;;6267303;28;20024;-69
2022/05/02 03:39:09;;;;;;;0.52;0.40;;;20.10;50.30;;;;;;6250821;28;20473;-68
2022/05/02 03:42:10;;;;;;;1.05;0.38;;;20.10;50.30;;;;;;6268330;28;20025;-69
2022/05/02 03:45:11;;;;;;;0.30;0.30;;;20.10;50.30;;;;;;6268707;28;20655;-68
2022/05/02 03:48:12;;;;;;;0.47;0.45;;;20.10;50.30;;;;;;6268446;28;20122;-68
2022/05/02 03:51:12;;;;;;;0.50;0.38;;;20.10;50.30;;;;;;6268399;28;20549;-68
2022/05/02 03:54:13;;;;;;;0.50;0.40;;;20.10;50.30;;;;;;6267966;28;20028;-68
2022/05/02 03:57:13;;;;;;;0.43;0.28;;;20.10;50.30;;;;;;6268917;28;20061;-68
2022/05/02 04:00:15;;;;;;;0.30;0.30;;;20.10;50.30;;;;;;6268248;28;20036;-68
2022/05/02 04:03:15;;;;;;;0.80;0.50;;;20.10;50.30;;;;;;6267428;28;20032;-69
2022/05/02 04:06:16;;;;;;;0.40;0.40;;;20.10;50.30;;;;;;6267926;28;20025;-68
2022/05/02 04:09:16;;;;;;;0.68;0.43;;;20.10;50.30;;;;;;6266564;28;20041;-68
2022/05/02 04:12:17;;;;;;;0.60;0.50;;;20.10;50.30;;;;;;6268409;28;20025;-69
2022/05/02 04:15:17;;;;;;;0.57;0.40;;;20.10;50.30;;;;;;6267999;28;20511;-69
2022/05/02 04:18:18;;;;;;;0.40;0.40;;;20.10;50.30;;;;;;6267909;28;20017;-69
2022/05/02 04:21:18;;;;;;;0.30;0.30;;;20.10;50.30;;;;;;6267613;28;20102;-68
2022/05/02 04:24:19;;;;;;;0.60;0.43;;;20.10;50.30;;;;;;6267656;28;20453;-69
2022/05/02 04:27:20;;;;;;;0.30;0.30;;;20.10;50.30;;;;;;6267701;28;20037;-68
2022/05/02 04:30:20;;;;;;;0.95;0.38;;;20.10;50.30;;;;;;6261347;28;20037;-68
2022/05/02 04:33:21;;;;;;;0.70;0.50;;;20.10;50.30;;;;;;6242945;28;20153;-68
2022/05/02 04:36:21;;;;;;;0.40;0.40;;;20.10;50.40;;;;;;6242363;28;20028;-68
2022/05/02 04:39:22;;;;;;;0.50;0.40;;;20.10;50.30;;;;;;6242612;28;20048;-68
2022/05/02 04:42:23;;;;;;;0.82;0.50;;;20.10;50.30;;;;;;6241317;28;20041;-68
2022/05/02 04:45:24;;;;;;;0.80;0.40;;;20.10;50.30;;;;;;6242678;28;20028;-69
2022/05/02 04:48:25;;;;;;;0.68;0.47;;;20.10;50.30;;;;;;6242761;28;20502;-68
2022/05/02 04:51:25;;;;;;;0.75;0.40;;;20.10;50.30;;;;;;6248825;28;20028;-67
2022/05/02 04:54:26;;;;;;;0.50;0.50;;;20.00;50.20;;;;;;6267106;28;20029;-68
2022/05/02 04:57:27;;;;;;;0.50;0.40;;;20.10;50.30;;;;;;6267164;28;20025;-68
2022/05/02 05:00:40;;;;;;;0.85;0.50;;;20.10;50.30;;;;;;6249071;28;20439;-67
2022/05/02 05:03:41;;;;;;;0.40;0.35;;;20.10;50.30;;;;;;6266485;28;20035;-68
2022/05/02 05:06:41;;;;;;;3.35;0.50;;;20.10;50.30;;;;;;6266997;28;20032;-68
2022/05/02 05:09:42;;;;;;;0.43;0.40;;;20.10;50.30;;;;;;6266506;28;20567;-69
2022/05/02 05:13:21;;;;;;;1.17;0.43;;;20.10;50.30;;;;;;6249078;28;20050;-68
2022/05/02 05:16:54;;;;;;;0.50;0.45;;;20.10;50.30;;;;;;6264122;28;20051;-68
2022/05/02 05:20:35;;;;;;;0.52;0.40;;;20.10;50.30;;;;;;6260390;28;20495;-70
2022/05/02 05:23:55;;;;;;;0.55;0.50;;;20.10;50.30;;;;;;6266547;28;20017;-69
2022/05/02 05:27:12;;;;;;;0.40;0.40;;;20.10;50.20;;;;;;6254856;28;20025;-67
2022/05/02 05:30:13;;;;;;;0.40;0.40;;;20.10;50.90;;;;;;6258158;28;20029;-71
2022/05/02 05:33:44;;;;;;;0.70;0.50;;;20.10;50.20;;;;;;6264951;28;20097;-69
2022/05/02 05:37:23;;;;;;;1.55;0.55;;;20.10;50.20;;;;;;6263564;28;20033;-71
2022/05/02 05:40:29;;;;;;;0.68;0.50;;;20.10;50.20;;;;;;6248680;28;20018;-70
2022/05/02 05:43:39;;;;;;;0.57;0.40;;;20.10;50.30;;;;;;6264394;28;20051;-71
2022/05/02 05:47:24;;;;;;;0.30;0.30;;;20.10;50.20;;;;;;6255499;28;20487;-70
2022/05/02 05:50:30;;;;;;;0.47;0.40;;;20.10;50.20;;;;;;6224142;28;20647;-73
2022/05/02 05:53:42;;;;;;;0.40;0.40;;;20.10;50.20;;;;;;6260012;28;20087;-73
2022/05/02 05:57:07;;;;;;;0.50;0.50;;;20.10;50.10;;;;;;6264501;28;20021;-75
2022/05/02 06:00:13;;;;;;;1.58;0.47;;;20.10;50.20;;;;;;6265435;28;20028;-74
2022/05/02 06:03:15;;;;;;;0.50;0.50;;;20.10;50.10;;;;;;6266418;28;20028;-73
2022/05/02 06:06:16;;;;;;;0.40;0.30;;;20.10;50.20;;;;;;6265858;28;20440;-73
2022/05/02 06:09:19;;;;;;;0.20;0.20;;;20.10;50.10;;;;;;6265533;28;20084;-73
2022/05/02 06:12:22;;;;;;;0.30;0.30;;;20.10;50.10;;;;;;6265730;28;20029;-73
2022/05/02 06:18:48;;;;;;;0.40;0.40;;;20.10;50.10;;;;;;6265699;28;20029;-74
2022/05/02 06:21:49;;;;;;;0.50;0.50;;;20.10;50.10;;;;;;6241614;28;20020;-73
2022/05/02 06:24:53;;;;;;;0.38;0.30;;;20.10;50.10;;;;;;6239349;28;20036;-73
2022/05/02 06:27:56;;;;;;;0.80;0.60;;;20.10;50.10;;;;;;6243397;28;20105;-73
2022/05/02 06:31:00;;;;;;;0.77;0.40;;;20.10;50.10;;;;;;6254759;28;20032;-73
2022/05/02 06:34:02;;;;;;;1.23;0.40;;;20.10;50.10;;;;;;6268276;28;20036;-73
2022/05/02 06:37:26;;;;;;;5.22;0.55;;;20.20;50.20;;;;;;6269654;28;20032;-73
2022/05/02 06:40:46;;;;;;;3.38;0.80;;;20.20;50.40;;;;;;6269973;28;20021;-73
2022/05/02 06:43:54;;;;;;;7.32;0.77;;;20.20;50.40;;;;;;6269456;28;20119;-71
2022/05/02 06:47:11;;;;;;;11.25;0.88;;;20.30;50.30;;;;;;6251892;28;20079;-72
2022/05/02 06:50:17;;;;;;;4.20;0.93;;;20.20;50.20;;;;;;6269524;28;20025;-73
2022/05/02 06:53:48;;;;;;;8.02;0.70;;;20.20;50.20;;;;;;6251131;28;20025;-71
2022/05/02 06:57:21;;;;;;;5.40;0.80;;;20.20;50.50;;;;;;6269345;28;20577;-74
2022/05/02 07:00:22;;;;;;;9.45;0.75;;;20.30;50.30;;;;;;6268925;28;20029;-72
2022/05/02 07:03:32;;;;;;;1.75;0.90;;;20.30;50.20;;;;;;6269119;28;20021;-73
2022/05/02 07:06:57;;;;;;;4.50;0.95;;;20.30;50.30;;;;;;6268982;28;20061;-73
2022/05/02 07:10:23;;;;;;;4.10;0.65;;;20.20;50.10;;;;;;6259648;28;20052;-73
2022/05/02 07:13:42;;;;;;;;;;;20.20;50.10;;;;;;6243446;28;20021;-73
2022/05/02 07:16:49;;;;;;;1.83;0.52;;;20.20;50.50;;;;;;6243738;28;19909;-73
2022/05/02 07:20:05;;;;;;;1.70;0.60;;;20.30;50.30;;;;;;6252444;28;20443;-75
2022/05/02 07:23:21;;;;;;;5.07;0.82;;;20.30;50.10;;;;;;6249778;28;20094;-70
2022/05/02 07:26:22;;;;;;;;;;;20.30;50.10;;;;;;6268362;28;20087;-71
2022/05/02 07:29:25;;;;;;;2.33;0.77;;;20.30;50.10;;;;;;6268119;28;19909;-74
2022/05/02 07:32:27;;;;;;;2.67;0.90;;;20.20;50.00;;;;;;6268151;28;20155;-73
2022/05/02 07:35:28;;;;;;;4.07;0.93;;;20.20;49.70;;;;;;6267938;28;20602;-73
2022/05/02 07:38:33;;;;;;;2.58;0.80;;;20.20;49.60;;;;;;6268239;28;20025;-73
2022/05/02 07:41:35;;;;;;;5.72;1.08;;;20.20;49.60;;;;;;6262536;28;20025;-72
2022/05/02 07:44:38;;;;;;;3.40;0.98;;;20.20;49.60;;;;;;6250293;28;20120;-73
2022/05/02 07:47:43;;;;;;;1.80;0.77;;;20.20;49.60;;;;;;6250248;28;20116;-74
2022/05/02 07:50:44;;;;;;;5.22;1.17;;;20.20;49.60;;;;;;6267656;28;20028;-74
2022/05/02 07:53:45;;;;;;;4.07;1.10;;;20.20;49.60;;;;;;6249943;28;20512;-73
2022/05/02 07:56:49;;;;;;;5.35;0.90;;;20.20;49.60;;;;;;6268026;28;20459;-73
2022/05/02 07:59:52;;;;;;;2.65;0.60;;;20.20;49.70;;;;;;6249952;28;20053;-73
2022/05/02 08:02:52;;;;;;;4.05;0.68;;;20.20;49.70;;;;;;6261424;28;20041;-73
2022/05/02 08:05:58;;;;;;;1.95;0.80;;;20.20;49.70;;;;;;6249649;28;20578;-73
2022/05/02 08:09:32;;;;;;;3.00;0.98;;;20.20;49.70;;;;;;6266087;28;20048;-73
2022/05/02 08:12:47;;;;;;;1.30;0.50;;;20.20;50.00;;;;;;6245433;28;20036;-74
2022/05/02 08:15:58;;;;;;;2.53;0.80;;;20.20;49.80;;;;;;6266269;28;20046;-73
2022/05/02 08:19:26;;;;;;;3.30;0.70;;;20.20;49.80;;;;;;6267611;28;20387;-71
2022/05/02 08:30:16;;;;;;;1.98;0.80;;;20.20;49.80;;;;;;6266810;28;20033;-74
2022/05/02 08:33:24;;;;;;;4.93;1.73;;;20.20;49.90;;;;;;6266450;28;20013;-73
2022/05/02 08:36:54;;;;;;;1.75;0.90;;;20.20;49.80;;;;;;6289995;28;20808;-71
2022/05/02 08:40:34;;;;;;;2.00;0.68;;;20.20;49.90;;;;;;6289700;28;20025;-73
2022/05/02 08:43:53;;;;;;;4.32;1.25;;;20.20;49.80;;;;;;6272961;28;20693;-72
2022/05/02 08:47:31;;;;;;;2.53;0.60;;;20.20;49.80;;;;;;6291458;28;20051;-74
2022/05/02 08:51:06;;;;;;;2.47;0.80;;;20.20;49.80;;;;;;6290839;28;20131;-73
2022/05/02 08:54:19;;;;;;;0.73;0.52;;;20.20;49.80;;;;;;6241440;28;20025;-73
2022/05/02 08:57:50;;;;;;;2.78;0.80;;;20.20;49.90;;;;;;6241515;28;20017;-73
2022/05/02 09:01:04;;;;;;;1.58;0.90;;;20.20;49.90;;;;;;6241529;28;20037;-75
2022/05/02 09:04:20;;;;;;;1.23;0.77;;;20.20;49.90;;;;;;6239921;28;20538;-74
2022/05/02 09:07:48;;;;;;;1.20;0.60;;;20.20;49.90;;;;;;6240161;28;20037;-73
2022/05/02 09:11:10;;;;;;;0.88;0.55;;;20.20;49.90;;;;;;6216820;28;20177;-73
2022/05/02 09:14:37;;;;;;;1.80;0.70;;;20.20;49.90;;;;;;6215438;28;20050;-73
2022/05/02 09:17:58;;;;;;;1.65;0.77;;;20.20;49.90;;;;;;6216525;28;20098;-73
2022/05/02 09:21:15;;;;;;;1.23;0.75;;;20.20;49.90;;;;;;6221881;28;20044;-74
2022/05/02 09:24:53;;;;;;;1.48;0.80;;;20.20;49.90;;;;;;6256500;28;20048;-73
2022/05/02 09:28:00;;;;;;;1.33;0.60;;;20.20;49.90;;;;;;6256276;28;20060;-74
2022/05/02 09:31:21;;;;;;;2.15;0.60;;;20.20;49.90;;;;;;6239747;28;20084;-73
2022/05/02 09:34:33;;;;;;;0.95;0.60;;;20.20;50.00;;;;;;6240781;28;20057;-74
2022/05/02 09:37:50;;;;;;;3.22;0.60;;;20.20;50.00;;;;;;6239477;28;20036;-74
2022/05/02 09:40:59;;;;;;;0.93;0.65;;;20.20;50.00;;;;;;6240952;28;20518;-76
2022/05/02 09:51:21;;;;;;;5.57;0.63;;;20.30;50.50;;;;;;6239963;28;20395;-71
2022/05/02 09:58:30;;;;;;;6.95;1.05;;;20.50;50.20;;;;;;6239857;28;20539;-71
2022/05/02 10:01:32;;;;;;;7.38;0.77;;;20.50;50.30;;;;;;6238565;28;20022;-72
2022/05/02 10:04:36;;;;;;;10.90;0.98;;;20.50;50.30;;;;;;6244933;28;20053;-71
2022/05/02 10:07:47;;;;;;;1.40;0.80;;;20.40;50.20;;;;;;6244501;28;20225;-71
2022/05/02 10:11:15;;;;;;;2.22;0.40;;;20.40;50.40;;;;;;6235764;28;20033;-71
2022/05/02 10:14:50;;;;;;;1.92;0.90;;;20.30;50.20;;;;;;6256739;28;20086;-70
2022/05/02 10:18:18;;;;;;;2.35;0.80;;;20.30;50.30;;;;;;6251189;28;20439;-72
2022/05/02 10:21:22;;;;;;;3.45;0.63;;;20.30;50.20;;;;;;6270079;28;20025;-72
2022/05/02 10:24:55;;;;;;;4.47;0.80;;;20.30;50.20;;;;;;6263579;28;20024;-72
2022/05/02 10:28:07;;;;;;;2.15;0.63;;;20.30;50.20;;;;;;6268933;28;20124;-72
2022/05/02 10:31:16;;;;;;;0.60;0.55;;;20.30;50.20;;;;;;6269252;28;20029;-72
2022/05/02 10:34:27;;;;;;;2.63;0.70;;;20.20;50.00;;;;;;6269418;28;20037;-71
2022/05/02 10:37:31;;;;;;;1.50;0.75;;;20.30;50.10;;;;;;6269186;28;20557;-72
2022/05/02 10:40:44;;;;;;;1.95;0.60;;;20.30;50.10;;;;;;6251532;28;20093;-71
2022/05/02 10:43:50;;;;;;;3.17;0.70;;;20.30;50.00;;;;;;6251240;28;20032;-71
2022/05/02 10:46:54;;;;;;;2.90;1.00;;;20.30;50.00;;;;;;6268729;28;20109;-73
2022/05/02 10:50:07;;;;;;;1.15;0.60;;;20.30;50.10;;;;;;6269582;28;20115;-72
2022/05/02 10:53:13;;;;;;;0.95;0.60;;;20.30;50.10;;;;;;6269239;28;20025;-72
2022/05/02 10:56:32;;;;;;;2.10;0.63;;;20.30;50.10;;;;;;6269243;28;20387;-73
2022/05/02 10:59:40;;;;;;;2.47;1.00;;;20.30;50.00;;;;;;6269146;28;20064;-71
2022/05/02 11:03:14;;;;;;;0.50;0.50;;;20.30;50.10;;;;;;6250743;28;20035;-72
2022/05/02 11:06:26;;;;;;;1.70;0.80;;;20.30;50.10;;;;;;6268473;28;20036;-73
2022/05/02 11:09:43;;;;;;;1.20;0.57;;;20.20;50.00;;;;;;6268705;28;20672;-71
2022/05/02 11:12:59;;;;;;;1.52;0.60;;;20.30;50.10;;;;;;6266744;28;20074;-71
2022/05/02 11:16:21;;;;;;;1.05;0.45;;;20.30;50.10;;;;;;6267810;28;20025;-71
2022/05/02 11:23:57;;;;;;;0.73;0.50;;;20.20;50.00;;;;;;6259781;28;20029;-71
2022/05/02 11:27:21;;;;;;;1.30;0.60;;;20.30;50.10;;;;;;6254914;28;20029;-74
2022/05/02 11:30:28;;;;;;;1.35;0.50;;;20.20;50.00;;;;;;6267415;28;20021;-71
2022/05/02 11:33:42;;;;;;;0.70;0.50;;;20.20;50.10;;;;;;6250006;28;20025;-72
2022/05/02 11:36:45;;;;;;;1.23;0.60;;;20.20;50.10;;;;;;6267083;28;20048;-72
2022/05/02 11:40:09;;;;;;;0.70;0.50;;;20.30;50.30;;;;;;6249743;28;20033;-70
2022/05/02 11:43:11;;;;;;;0.82;0.40;;;20.40;49.90;;;;;;6249600;28;20112;-71
2022/05/02 11:46:22;;;;;;;1.45;0.50;;;20.50;50.40;;;;;;6267121;28;20021;-72
2022/05/02 11:49:43;;;;;;;1.70;0.50;;;20.60;50.50;;;;;;6267189;28;20055;-70
2022/05/02 11:52:54;;;;;;;1.98;0.80;;;20.50;50.70;;;;;;6267892;28;20021;-71
2022/05/02 11:55:55;;;;;;;0.82;0.40;;;20.60;50.20;;;;;;6267732;28;20032;-72
2022/05/02 11:59:11;;;;;;;7.45;0.70;;;20.60;50.70;;;;;;6267257;28;20120;-71
2022/05/02 12:02:42;;;;;;;3.20;0.50;;;20.60;50.40;;;;;;6267550;28;20021;-70
2022/05/02 12:06:05;;;;;;;8.00;0.52;;;20.60;50.60;;;;;;6267229;28;20127;-71
2022/05/02 12:09:17;;;;;;;1.35;0.50;;;20.60;51.10;;;;;;6266728;28;20400;-74
2022/05/02 12:12:18;;;;;;;5.97;0.75;;;20.70;50.50;;;;;;6265094;28;20068;-72
2022/05/02 12:15:19;;;;;;;4.25;0.60;;;20.90;51.00;;;;;;6267251;28;20039;-71
2022/05/02 12:18:20;;;;;;;1.25;0.60;;;20.80;48.90;;;;;;6267118;28;20024;-71
2022/05/02 12:21:47;;;;;;;3.58;0.43;;;20.80;48.40;;;;;;6248678;28;20021;-73
2022/05/02 12:24:51;;;;;;;2.28;0.70;;;21.00;48.10;;;;;;6265833;28;20075;-70
2022/05/02 12:27:53;;;;;;;3.87;0.60;;;21.00;48.20;;;;;;6266418;28;20079;-72
2022/05/02 12:30:54;;;;;;;1.05;0.50;;;21.10;47.90;;;;;;6266736;28;20731;-71
2022/05/02 12:34:04;;;;;;;0.90;0.60;;;21.20;47.00;;;;;;6263091;28;20123;-72
2022/05/02 12:37:08;;;;;;;1.02;0.60;;;21.00;47.40;;;;;;6248077;28;20047;-73
2022/05/02 12:40:09;;;;;;;0.40;0.40;;;21.00;47.40;;;;;;6266694;28;20017;-72
2022/05/02 12:43:24;;;;;;;1.00;0.63;;;21.00;47.40;;;;;;6265891;28;20021;-72
2022/05/02 12:46:33;;;;;;;1.40;0.60;;;21.00;47.20;;;;;;6265856;28;20039;-74
2022/05/02 12:50:03;;;;;;;0.55;0.52;;;21.00;47.10;;;;;;6247581;28;20017;-72
2022/05/02 12:53:10;;;;;;;0.77;0.45;;;21.00;46.90;;;;;;6263389;28;20561;-72
2022/05/02 12:56:15;;;;;;;0.75;0.40;;;21.00;46.80;;;;;;6239750;28;20030;-72
2022/05/02 13:02:39;;;;;;;0.85;0.40;;;21.00;46.60;;;;;;6241035;28;20098;-73
2022/05/02 13:05:52;;;;;;;1.08;0.47;;;21.00;46.60;;;;;;6240748;28;20033;-71
2022/05/02 13:09:12;;;;;;;0.70;0.50;;;21.10;46.50;;;;;;6224232;28;20158;-73
2022/05/02 13:12:14;;;;;;;0.80;0.40;;;21.10;46.40;;;;;;6241089;28;20025;-73
2022/05/02 13:15:15;;;;;;;0.63;0.38;;;21.10;46.30;;;;;;6261760;28;20104;-72
2022/05/02 13:18:21;;;;;;;0.60;0.50;;;21.10;46.10;;;;;;6263640;28;20032;-73
2022/05/02 13:21:22;;;;;;;0.50;0.40;;;21.10;46.20;;;;;;6238849;28;20049;-72
2022/05/02 13:24:23;;;;;;;0.47;0.30;;;21.10;46.10;;;;;;6245884;28;20025;-71
2022/05/02 13:27:37;;;;;;;0.65;0.45;;;21.10;46.00;;;;;;6264804;28;20118;-72
2022/05/02 13:30:38;;;;;;;0.30;0.30;;;21.10;45.90;;;;;;6264601;28;20017;-72
2022/05/02 13:33:48;;;;;;;0.30;0.30;;;21.10;45.90;;;;;;6247305;28;20025;-72
2022/05/02 13:36:58;;;;;;;0.57;0.32;;;21.10;46.00;;;;;;6269301;28;20502;-73
2022/05/02 13:40:01;;;;;;;0.70;0.45;;;21.10;45.80;;;;;;6272771;28;20025;-73
2022/05/02 13:43:25;;;;;;;0.32;0.30;;;21.10;45.70;;;;;;6273176;28;20414;-72
2022/05/02 13:46:42;;;;;;;0.50;0.40;;;21.10;45.70;;;;;;6272907;28;20032;-72
2022/05/02 13:50:10;;;;;;;0.57;0.38;;;21.10;45.70;;;;;;6244740;28;20029;-72
2022/05/02 13:53:45;;;;;;;0.52;0.43;;;21.10;45.60;;;;;;6254925;28;20025;-72
2022/05/02 13:56:56;;;;;;;0.35;0.35;;;21.10;45.60;;;;;;6244438;28;20467;-72
2022/05/02 14:00:05;;;;;;;0.45;0.30;;;21.10;45.50;;;;;;6255533;28;20009;-72
2022/05/02 14:03:53;;;;;;;0.80;0.50;;;21.10;45.50;;;;;;6245832;28;20606;-72
2022/05/02 14:10:09;;;;;;;0.40;0.40;;;21.10;45.30;;;;;;6261719;28;20048;-72
2022/05/02 14:13:20;;;;;;;0.98;0.52;;;21.10;45.30;;;;;;6254294;28;20480;-72
2022/05/02 14:16:30;;;;;;;0.45;0.30;;;21.10;45.30;;;;;;6274679;28;20078;-72
2022/05/02 14:19:30;;;;;;;1.30;0.50;;;21.10;45.30;;;;;;6221227;28;20105;-74
2022/05/02 14:22:34;;;;;;;0.50;0.40;;;21.10;45.20;;;;;;6203891;28;20079;-72
2022/05/02 14:25:46;;;;;;;0.40;0.40;;;21.10;45.10;;;;;;6220081;28;20033;-72
2022/05/02 14:28:49;;;;;;;0.60;0.45;;;21.10;45.10;;;;;;6203342;28;20069;-72
2022/05/02 14:32:04;;;;;;;0.70;0.45;;;21.10;45.10;;;;;;6198713;28;20030;-74
2022/05/02 14:35:05;;;;;;;0.90;0.53;;;21.10;45.10;;;;;;6218584;28;20480;-72
2022/05/02 14:38:11;;;;;;;0.98;0.57;;;21.10;45.10;;;;;;6220221;28;20798;-72
2022/05/02 14:41:12;;;;;;;0.32;0.32;;;21.10;45.00;;;;;;6204279;28;20022;-73
2022/05/02 14:44:14;;;;;;;2.80;0.40;;;21.30;44.80;;;;;;6204113;28;20045;-72
2022/05/02 14:47:16;;;;;;;0.93;0.47;;;21.40;44.30;;;;;;6218655;28;20057;-72
2022/05/02 14:50:20;;;;;;;1.55;0.57;;;21.60;44.80;;;;;;6243070;28;20040;-72
2022/05/02 14:53:25;;;;;;;0.47;0.40;;;21.40;44.60;;;;;;6267038;28;20639;-73
2022/05/02 14:56:29;;;;;;;2.38;0.40;;;21.30;44.70;;;;;;6267374;28;20029;-73
2022/05/02 14:59:34;;;;;;;2.50;0.50;;;21.20;44.90;;;;;;6250851;28;20032;-73
2022/05/02 15:02:35;;;;;;;0.38;0.38;;;21.20;44.80;;;;;;6267388;28;20083;-74
2022/05/02 15:05:36;;;;;;;0.47;0.40;;;21.20;44.80;;;;;;6267583;28;20029;-72
2022/05/02 15:09:17;;;;;;;0.45;0.38;;;21.20;44.80;;;;;;6269024;28;20045;-72
2022/05/02 15:12:29;;;;;;;0.70;0.30;;;21.30;44.50;;;;;;6242335;28;20025;-72
2022/05/02 15:15:46;;;;;;;0.65;0.35;;;21.30;44.70;;;;;;6267780;28;20017;-72
2022/05/02 15:22:31;;;;;;;0.75;0.43;;;21.20;44.80;;;;;;6262170;28;20586;-72
2022/05/02 15:25:32;;;;;;;0.43;0.43;;;21.40;44.30;;;;;;6241929;28;20125;-72
2022/05/02 15:39:04;;;;;;;0.98;0.57;;;21.20;44.50;;;;;;6243614;28;20041;-71
2022/05/02 15:42:07;;;;;;;0.65;0.47;;;21.40;44.30;;;;;;6252380;28;20396;-71
2022/05/02 15:45:20;;;;;;;1.17;0.50;;;21.50;44.10;;;;;;6266681;28;20029;-72
2022/05/02 15:48:38;;;;;;;1.20;0.60;;;21.40;44.30;;;;;;6249301;28;20028;-73
2022/05/02 15:51:52;;;;;;;1.20;0.50;;;21.30;44.40;;;;;;6268053;28;20017;-74
2022/05/02 15:55:04;;;;;;;1.25;0.52;;;21.30;44.40;;;;;;6249884;28;20547;-73
2022/05/02 15:58:05;;;;;;;2.65;0.60;;;21.30;44.50;;;;;;6261740;28;20021;-73
2022/05/02 16:01:14;;;;;;;0.98;0.73;;;21.30;44.50;;;;;;6248013;28;20032;-73
2022/05/02 16:04:25;;;;;;;0.60;0.50;;;21.30;44.40;;;;;;6248908;28;20063;-74
2022/05/02 16:10:59;;;;;;;1.80;0.52;;;21.20;44.30;;;;;;6249578;28;20100;-73
2022/05/02 16:14:04;;;;;;;0.75;0.60;;;21.30;44.30;;;;;;6253337;28;20495;-73
2022/05/02 16:17:06;;;;;;;0.57;0.53;;;21.30;44.40;;;;;;6248521;28;20450;-73
2022/05/02 16:20:11;;;;;;;1.35;0.68;;;21.30;44.40;;;;;;6241651;28;20021;-73
2022/05/02 16:23:15;;;;;;;1.10;0.57;;;21.30;44.30;;;;;;6247439;28;20025;-73
2022/05/02 16:26:16;;;;;;;0.50;0.45;;;21.20;44.20;;;;;;6247750;28;20458;-73
2022/05/02 16:29:17;;;;;;;0.63;0.50;;;21.30;44.30;;;;;;6246280;28;20031;-74
2022/05/02 16:32:17;;;;;;;1.20;0.70;;;21.20;44.10;;;;;;6247237;28;20547;-74
2022/05/02 16:35:22;;;;;;;1.85;0.50;;;21.30;44.20;;;;;;6263444;28;20024;-72
2022/05/02 16:38:31;;;;;;;0.75;0.32;;;21.20;44.10;;;;;;6246858;28;20091;-72
2022/05/02 16:41:36;;;;;;;0.52;0.45;;;21.30;44.30;;;;;;6246489;28;20020;-73
2022/05/02 16:44:36;;;;;;;0.70;0.50;;;21.30;44.10;;;;;;6246949;28;20025;-73
2022/05/02 16:47:41;;;;;;;0.88;0.70;;;21.20;44.10;;;;;;6263316;28;20115;-73
2022/05/02 16:50:42;;;;;;;0.98;0.60;;;21.30;44.10;;;;;;6246662;28;20025;-73
2022/05/02 16:53:44;;;;;;;1.25;0.75;;;21.30;44.10;;;;;;6246251;28;20033;-73
2022/05/02 16:56:46;;;;;;;1.42;0.55;;;21.30;44.10;;;;;;6246405;28;20051;-73
2022/05/02 16:59:47;;;;;;;1.02;0.57;;;21.20;44.10;;;;;;6264256;28;20025;-74
2022/05/02 17:02:49;;;;;;;4.18;0.60;;;21.30;44.10;;;;;;6256448;28;20052;-72
2022/05/02 17:05:50;;;;;;;1.58;0.50;;;21.40;43.90;;;;;;6264962;28;20039;-71
2022/05/02 17:08:52;;;;;;;1.20;0.60;;;21.50;43.70;;;;;;6265488;28;20045;-72
2022/05/02 17:11:52;;;;;;;1.23;0.70;;;21.70;43.10;;;;;;6222979;28;20079;-71
2022/05/02 17:14:55;;;;;;;1.70;0.60;;;21.60;43.60;;;;;;6259586;28;20025;-71
2022/05/02 17:17:56;;;;;;;1.52;0.88;;;21.60;43.30;;;;;;6248038;28;20056;-71